Time;durP1;ratioP1;P1;durP2;ratioP2;P2;SDS_P1;SDS_P2;PMS_P1;PMS_P2;Temp;Humidity;BMP_temperature;BMP_pressure;BME280_temperature;BME280_humidity;BME280_pressure;Samples;Min_cycle;Max_cycle;Signal;HPM_P1;HPM_P2
2021/07/24 00:01:53;;;;;;;0.53;0.50;;;;;;;18.22;98.29;99685.88;5012709;28;20484;-54
2021/07/24 00:04:20;;;;;;;0.50;0.50;;;;;;;18.36;97.53;99687.59;5004760;28;20468;-54
2021/07/24 00:06:46;;;;;;;0.60;0.57;;;;;;;18.37;97.81;99681.28;5011945;28;20489;-54
2021/07/24 00:09:14;;;;;;;1.80;1.00;;;;;;;18.17;99.05;99684.50;5008505;28;20477;-54
2021/07/24 00:11:41;;;;;;;1.70;1.07;;;;;;;18.35;98.54;99675.97;5005279;28;20454;-54
2021/07/24 00:14:07;;;;;;;0.40;0.30;;;;;;;18.42;98.04;99678.25;5005934;28;20456;-54
2021/07/24 00:16:34;;;;;;;0.40;0.30;;;;;;;18.18;99.60;99681.69;5019357;28;20480;-54
2021/07/24 00:19:01;;;;;;;0.50;0.30;;;;;;;18.30;99.22;99677.28;5000552;28;20513;-54
2021/07/24 00:21:28;;;;;;;2.20;1.80;;;;;;;18.30;98.83;99675.44;5012568;28;20463;-54
2021/07/24 00:23:54;;;;;;;0.40;0.20;;;;;;;18.35;97.69;99677.81;5012883;28;20453;-54
2021/07/24 00:26:21;;;;;;;2.40;2.30;;;;;;;18.47;97.51;99676.09;4992490;28;20493;-54
2021/07/24 00:28:47;;;;;;;1.33;0.70;;;;;;;18.22;98.58;99680.50;5003365;28;20991;-54
2021/07/24 00:31:14;;;;;;;0.40;0.30;;;;;;;18.28;98.17;99676.53;4999328;28;20938;-54
2021/07/24 00:33:41;;;;;;;0.40;0.30;;;;;;;18.17;98.36;99681.78;5003425;28;20448;-54
2021/07/24 00:36:07;;;;;;;0.67;0.50;;;;;;;18.11;99.10;99676.84;5004852;28;20504;-54
2021/07/24 00:38:34;;;;;;;4.47;3.03;;;;;;;18.05;99.50;99676.28;4992856;28;20524;-54
2021/07/24 00:41:07;;;;;;;0.50;0.30;;;;;;;18.12;99.13;99662.44;5004868;28;20472;-54
2021/07/24 00:43:35;;;;;;;0.40;0.20;;;;;;;18.08;99.12;99666.28;4993233;28;20441;-54
2021/07/24 00:46:04;;;;;;;0.87;0.87;;;;;;;18.00;99.00;99656.94;5003508;28;20894;-54
2021/07/24 00:48:31;;;;;;;0.50;0.30;;;;;;;17.97;99.36;99653.59;5005273;28;20456;-54
2021/07/24 00:50:58;;;;;;;0.60;0.60;;;;;;;17.92;100.00;99648.53;4992426;28;20453;-54
2021/07/24 00:53:34;;;;;;;0.40;0.20;;;;;;;18.06;99.62;99645.75;4996493;28;20512;-54
2021/07/24 00:56:04;;;;;;;1.43;1.40;;;;;;;17.85;100.00;99641.88;5010941;28;20544;-54
2021/07/24 00:58:33;;;;;;;0.40;0.30;;;;;;;17.96;99.41;99627.69;5011448;28;20468;-54
2021/07/24 01:01:03;;;;;;;2.00;1.70;;;;;;;17.73;100.00;99630.13;5012016;28;20445;-54
2021/07/24 01:03:30;;;;;;;0.83;0.83;;;;;;;17.74;100.00;99628.28;4998849;28;20457;-54
2021/07/24 01:05:58;;;;;;;0.50;0.43;;;;;;;17.96;100.00;99633.94;5010261;28;20500;-54
2021/07/24 01:08:25;;;;;;;0.50;0.40;;;;;;;17.83;100.00;99638.44;5011889;28;20992;-54
2021/07/24 01:10:53;;;;;;;0.50;0.37;;;;;;;17.71;100.00;99625.81;5012161;28;20448;-54
2021/07/24 01:13:20;;;;;;;0.70;0.70;;;;;;;17.66;100.00;99630.59;5014999;28;20952;-54
2021/07/24 01:15:49;;;;;;;0.60;0.60;;;;;;;17.76;100.00;99639.81;5028551;28;20436;-54
2021/07/24 01:18:17;;;;;;;0.40;0.20;;;;;;;17.86;100.00;99630.16;4995913;28;20460;-54
2021/07/24 01:20:45;;;;;;;1.90;1.80;;;;;;;17.79;100.00;99628.81;5008813;28;20527;-54
2021/07/24 01:23:13;;;;;;;1.60;1.60;;;;;;;17.72;100.00;99628.41;5014934;28;20861;-54
2021/07/24 01:25:48;;;;;;;0.40;0.30;;;;;;;17.78;99.72;99632.50;5000932;28;20548;-54
2021/07/24 01:28:24;;;;;;;0.50;0.40;;;;;;;17.51;100.00;99621.75;5008602;28;20530;-54
2021/07/24 01:30:51;;;;;;;0.50;0.50;;;;;;;17.32;100.00;99613.22;5014983;28;20483;-54
2021/07/24 01:33:18;;;;;;;0.60;0.40;;;;;;;17.66;100.00;99611.78;5015115;28;20452;-54
2021/07/24 01:35:46;;;;;;;2.07;1.97;;;;;;;17.53;100.00;99610.91;5011004;28;20446;-54
2021/07/24 01:38:17;;;;;;;20.27;2.57;;;;;;;17.54;100.00;99615.31;5006082;28;20507;-57
2021/07/24 01:40:44;;;;;;;0.50;0.47;;;;;;;17.44;100.00;99620.47;5009876;28;20519;-56
2021/07/24 01:43:11;;;;;;;0.50;0.40;;;;;;;17.45;100.00;99601.56;5004627;28;20507;-57
2021/07/24 01:45:40;;;;;;;0.40;0.20;;;;;;;17.52;100.00;99611.88;5014327;28;20524;-56
2021/07/24 01:48:18;;;;;;;0.70;0.50;;;;;;;17.49;100.00;99607.56;5002401;28;20454;-57
2021/07/24 01:53:32;;;;;;;0.57;0.57;;;;;;;17.48;100.00;99612.09;5001676;28;20503;-57
2021/07/24 01:56:06;;;;;;;0.40;0.30;;;;;;;17.54;100.00;99613.47;5014390;28;21016;-54
2021/07/24 01:58:37;;;;;;;1.13;1.13;;;;;;;17.92;99.93;99616.25;5001557;28;20456;-55
2021/07/24 02:01:05;;;;;;;0.70;0.67;;;;;;;17.43;100.00;99610.69;5014698;28;20508;-54
2021/07/24 02:03:42;;;;;;;0.50;0.30;;;;;;;16.98;100.00;99598.47;4999512;28;20460;-54
2021/07/24 02:06:13;;;;;;;0.90;0.90;;;;;;;17.21;100.00;99594.28;5013909;28;20499;-54
2021/07/24 02:08:47;;;;;;;0.50;0.33;;;;;;;16.97;100.00;99586.88;5002519;28;20461;-54
2021/07/24 02:11:14;;;;;;;0.53;0.47;;;;;;;16.79;100.00;99570.19;5014344;28;20442;-54
2021/07/24 02:13:41;;;;;;;0.47;0.33;;;;;;;16.58;100.00;99568.84;5013949;28;20518;-54
2021/07/24 02:16:08;;;;;;;0.77;0.77;;;;;;;16.88;100.00;99568.72;5025449;28;20444;-54
2021/07/24 02:18:35;;;;;;;0.40;0.20;;;;;;;16.86;100.00;99576.88;5014198;28;20511;-54
2021/07/24 02:21:02;;;;;;;0.40;0.30;;;;;;;17.06;100.00;99569.31;5013605;28;20950;-54
2021/07/24 02:23:29;;;;;;;7.03;0.63;;;;;;;17.15;100.00;99583.00;5013739;28;20926;-54
2021/07/24 02:25:55;;;;;;;0.87;0.87;;;;;;;17.20;100.00;99580.00;4997463;28;20908;-54
2021/07/24 02:28:25;;;;;;;0.60;0.60;;;;;;;17.03;100.00;99581.13;4996657;28;20469;-54
2021/07/24 02:30:52;;;;;;;0.90;0.90;;;;;;;17.07;100.00;99579.09;5007168;28;20783;-54
2021/07/24 02:33:19;;;;;;;0.40;0.30;;;;;;;16.96;100.00;99587.00;4996471;28;20457;-54
2021/07/24 02:35:45;;;;;;;0.50;0.30;;;;;;;16.84;100.00;99578.78;5010001;28;20489;-54
2021/07/24 02:38:12;;;;;;;3.40;2.67;;;;;;;16.71;100.00;99574.31;5006172;28;21004;-54
2021/07/24 02:40:40;;;;;;;1.60;1.50;;;;;;;17.03;100.00;99580.25;5013644;28;20522;-54
2021/07/24 02:43:07;;;;;;;0.50;0.40;;;;;;;16.81;100.00;99580.81;5028958;28;20452;-54
2021/07/24 02:45:33;;;;;;;0.40;0.20;;;;;;;17.00;100.00;99572.41;4995776;28;20604;-54
2021/07/24 02:48:00;;;;;;;0.40;0.30;;;;;;;16.88;100.00;99564.22;5004270;28;20456;-54
2021/07/24 02:50:27;;;;;;;7.00;0.70;;;;;;;16.73;100.00;99561.69;4999902;28;20972;-54
2021/07/24 02:52:53;;;;;;;0.50;0.43;;;;;;;17.02;100.00;99552.56;5002428;28;20453;-54
2021/07/24 02:55:20;;;;;;;0.40;0.30;;;;;;;17.00;100.00;99559.84;4998440;28;20460;-54
2021/07/24 02:57:47;;;;;;;0.40;0.20;;;;;;;17.05;100.00;99559.53;5002033;28;20504;-54
2021/07/24 03:00:14;;;;;;;0.50;0.50;;;;;;;17.00;100.00;99564.38;4999834;28;20518;-54
2021/07/24 03:02:41;;;;;;;2.83;1.70;;;;;;;17.18;100.00;99565.81;5012421;28;20503;-54
2021/07/24 03:05:08;;;;;;;0.73;0.73;;;;;;;17.23;100.00;99557.44;5028251;28;20453;-54
2021/07/24 03:07:34;;;;;;;0.97;0.83;;;;;;;16.93;100.00;99557.66;5000965;28;20548;-54
2021/07/24 03:10:01;;;;;;;0.73;0.67;;;;;;;17.01;100.00;99558.88;4999064;28;20473;-54
2021/07/24 03:12:28;;;;;;;0.40;0.30;;;;;;;17.14;100.00;99567.84;4996000;28;20457;-54
2021/07/24 03:14:54;;;;;;;0.53;0.50;;;;;;;17.13;100.00;99570.59;5018377;28;20949;-54
2021/07/24 03:17:21;;;;;;;3.80;1.07;;;;;;;17.06;100.00;99575.53;5007005;28;20449;-54
2021/07/24 03:19:48;;;;;;;1.13;1.13;;;;;;;17.00;100.00;99575.09;5006475;28;20474;-54
2021/07/24 03:22:15;;;;;;;0.40;0.20;;;;;;;17.10;100.00;99586.94;5000776;28;20465;-54
2021/07/24 03:24:42;;;;;;;0.97;0.97;;;;;;;17.10;100.00;99590.47;5012190;28;20452;-54
2021/07/24 03:27:08;;;;;;;0.57;0.53;;;;;;;17.10;100.00;99592.31;5012380;28;20480;-54
2021/07/24 03:29:35;;;;;;;0.40;0.30;;;;;;;16.94;100.00;99603.22;5012505;28;20540;-54
2021/07/24 03:32:02;;;;;;;3.80;2.50;;;;;;;17.14;100.00;99612.66;5012835;28;20453;-54
2021/07/24 03:34:28;;;;;;;2.00;1.90;;;;;;;17.12;100.00;99620.78;5003966;28;20856;-54
2021/07/24 03:36:55;;;;;;;1.90;1.80;;;;;;;17.26;100.00;99633.28;4999848;28;20931;-54
2021/07/24 03:39:22;;;;;;;0.50;0.40;;;;;;;17.12;100.00;99625.28;5012294;28;20538;-54
2021/07/24 03:41:48;;;;;;;2.60;1.67;;;;;;;17.25;100.00;99628.03;5012748;28;20453;-54
2021/07/24 03:44:15;;;;;;;0.73;0.73;;;;;;;17.07;100.00;99616.69;4992865;28;20453;-54
2021/07/24 03:46:41;;;;;;;0.40;0.30;;;;;;;16.95;100.00;99622.84;5005817;28;20595;-54
2021/07/24 03:49:08;;;;;;;0.50;0.30;;;;;;;16.93;100.00;99631.00;5002311;28;20478;-54
2021/07/24 03:51:35;;;;;;;0.40;0.30;;;;;;;17.13;100.00;99638.66;5005779;28;20815;-54
2021/07/24 03:54:01;;;;;;;0.40;0.20;;;;;;;17.35;100.00;99658.69;4993080;28;20453;-54
2021/07/24 03:56:28;;;;;;;0.73;0.73;;;;;;;17.35;100.00;99675.66;5004489;28;20502;-54
2021/07/24 03:58:54;;;;;;;0.40;0.30;;;;;;;17.36;100.00;99693.50;4999175;28;20484;-54
2021/07/24 04:01:22;;;;;;;0.60;0.50;;;;;;;17.50;100.00;99705.16;4998444;28;20523;-54
2021/07/24 04:03:49;;;;;;;0.50;0.40;;;;;;;17.43;100.00;99696.66;4999519;28;20910;-54
2021/07/24 04:06:26;;;;;;;0.40;0.30;;;;;;;17.29;100.00;99680.59;5011615;28;20493;-54
2021/07/24 04:08:56;;;;;;;3.33;1.07;;;;;;;17.02;100.00;99667.16;4993051;28;20476;-54
2021/07/24 04:11:24;;;;;;;0.50;0.50;;;;;;;17.26;100.00;99670.03;5005862;28;20453;-54
2021/07/24 04:13:51;;;;;;;0.40;0.20;;;;;;;17.15;100.00;99658.19;5011139;28;20460;-54
2021/07/24 04:16:18;;;;;;;0.40;0.30;;;;;;;16.94;100.00;99640.78;5021184;28;21005;-54
2021/07/24 04:18:45;;;;;;;0.60;0.43;;;;;;;17.15;100.00;99634.03;5009494;28;20468;-54
2021/07/24 04:21:13;;;;;;;0.40;0.20;;;;;;;17.20;100.00;99622.09;4998684;28;20958;-54
2021/07/24 04:23:40;;;;;;;0.40;0.30;;;;;;;17.41;100.00;99612.63;5011062;28;20452;-54
2021/07/24 04:26:07;;;;;;;9.53;2.50;;;;;;;17.59;100.00;99622.13;5012141;28;20484;-54
2021/07/24 04:28:34;;;;;;;0.40;0.20;;;;;;;17.43;100.00;99599.94;5012263;28;20448;-54
2021/07/24 04:31:01;;;;;;;0.40;0.27;;;;;;;17.58;100.00;99603.41;4994726;28;20489;-54
2021/07/24 04:33:28;;;;;;;1.17;1.07;;;;;;;17.57;100.00;99599.84;5003440;28;20444;-54
2021/07/24 04:35:54;;;;;;;1.70;1.33;;;;;;;17.67;100.00;99592.84;5010402;28;21012;-54
2021/07/24 04:38:21;;;;;;;0.50;0.30;;;;;;;17.58;100.00;99601.56;5011963;28;20829;-54
2021/07/24 04:40:48;;;;;;;2.20;1.67;;;;;;;17.73;100.00;99603.25;4994395;28;20457;-54
2021/07/24 04:43:14;;;;;;;2.60;2.50;;;;;;;17.87;100.00;99587.97;5003933;28;20448;-54
2021/07/24 04:45:43;;;;;;;0.40;0.30;;;;;;;18.46;100.00;99586.41;4993964;28;20465;-54
2021/07/24 04:48:10;;;;;;;0.50;0.40;;;;;;;18.29;100.00;99573.31;5008241;28;20535;-54
2021/07/24 04:50:50;;;;;;;0.73;0.63;;;;;;;18.11;100.00;99578.19;4997042;28;20473;-54
2021/07/24 04:53:17;;;;;;;2.17;2.07;;;;;;;18.14;100.00;99567.19;5009551;28;20452;-54
2021/07/24 04:55:45;;;;;;;0.50;0.37;;;;;;;18.12;100.00;99569.16;4995177;28;20488;-54
2021/07/24 04:58:13;;;;;;;0.63;0.57;;;;;;;18.12;100.00;99568.28;5009322;28;20510;-54
2021/07/24 05:00:44;;;;;;;3.37;1.37;;;;;;;18.22;100.00;99555.88;4995990;28;20489;-54
2021/07/24 05:03:12;;;;;;;0.50;0.40;;;;;;;18.17;100.00;99553.53;5009751;28;20491;-54
2021/07/24 05:05:41;;;;;;;0.73;0.73;;;;;;;18.41;100.00;99547.34;5015432;28;20460;-54
2021/07/24 05:08:09;;;;;;;0.60;0.57;;;;;;;18.33;100.00;99534.44;5012495;28;20978;-54
2021/07/24 05:10:36;;;;;;;0.90;0.90;;;;;;;18.36;100.00;99526.13;4995632;28;20989;-54
2021/07/24 05:13:03;;;;;;;1.23;1.13;;;;;;;18.19;100.00;99518.44;5008722;28;20519;-54
2021/07/24 05:15:30;;;;;;;0.40;0.20;;;;;;;18.37;100.00;99517.13;5015178;28;21032;-54
2021/07/24 05:17:56;;;;;;;1.73;1.73;;;;;;;18.78;100.00;99543.72;4997770;28;20871;-54
2021/07/24 05:20:24;;;;;;;0.63;0.63;;;;;;;18.85;100.00;99544.09;4996796;28;20489;-54
2021/07/24 05:22:51;;;;;;;0.40;0.20;;;;;;;19.01;100.00;99568.06;5011867;28;20470;-54
2021/07/24 05:25:18;;;;;;;1.23;1.23;;;;;;;19.19;100.00;99558.59;5006424;28;21029;-54
2021/07/24 05:27:45;;;;;;;0.40;0.20;;;;;;;19.39;100.00;99546.28;5006840;28;21064;-54
2021/07/24 05:30:12;;;;;;;2.30;2.20;;;;;;;19.89;97.85;99561.28;5002286;28;20477;-54
2021/07/24 05:32:41;;;;;;;2.40;2.30;;;;;;;19.84;97.19;99552.66;5001159;28;20794;-54
2021/07/24 05:35:08;;;;;;;0.53;0.47;;;;;;;19.75;97.82;99551.56;5015095;28;20560;-54
2021/07/24 05:37:35;;;;;;;0.77;0.77;;;;;;;19.80;97.89;99546.66;5017014;28;20448;-54
2021/07/24 05:40:03;;;;;;;1.13;1.13;;;;;;;19.77;98.55;99565.78;5013626;28;20468;-54
2021/07/24 05:42:29;;;;;;;0.67;0.67;;;;;;;19.62;99.25;99552.63;5000620;28;20479;-54
2021/07/24 05:44:56;;;;;;;0.87;0.67;;;;;;;19.56;100.00;99558.50;5005109;28;20449;-54
2021/07/24 05:47:23;;;;;;;0.97;0.97;;;;;;;19.55;100.00;99564.84;5014808;28;20488;-54
2021/07/24 05:49:50;;;;;;;25.43;1.90;;;;;;;19.51;100.00;99550.72;5013109;28;20889;-54
2021/07/24 05:52:16;;;;;;;0.40;0.30;;;;;;;19.62;100.00;99577.75;5014528;28;21084;-54
2021/07/24 05:54:43;;;;;;;0.40;0.30;;;;;;;19.49;100.00;99568.88;5029463;28;20457;-54
2021/07/24 05:57:09;;;;;;;0.40;0.20;;;;;;;19.63;100.00;99562.44;4994569;28;20476;-54
2021/07/24 05:59:36;;;;;;;0.50;0.50;;;;;;;19.50;100.00;99566.06;5007414;28;20507;-54
2021/07/24 06:02:05;;;;;;;0.50;0.40;;;;;;;19.77;100.00;99557.69;4993786;28;20457;-54
2021/07/24 06:04:33;;;;;;;0.57;0.30;;;;;;;20.09;97.32;99549.75;5007532;28;20456;-54
2021/07/24 06:07:00;;;;;;;0.40;0.30;;;;;;;19.90;97.97;99559.44;5025245;28;20524;-54
2021/07/24 06:09:27;;;;;;;1.03;0.90;;;;;;;19.96;97.76;99569.72;5001012;28;20897;-54
2021/07/24 06:11:55;;;;;;;0.50;0.30;;;;;;;19.91;97.75;99575.50;5007389;28;20453;-54
2021/07/24 06:14:25;;;;;;;0.40;0.30;;;;;;;20.28;96.52;99572.53;5006194;28;20513;-54
2021/07/24 06:16:52;;;;;;;0.40;0.30;;;;;;;20.71;95.30;99564.59;5013588;28;20457;-55
2021/07/24 06:19:20;;;;;;;0.40;0.30;;;;;;;20.89;92.97;99565.75;5013934;28;20472;-54
2021/07/24 06:21:47;;;;;;;0.90;0.90;;;;;;;20.97;93.21;99576.78;5013651;28;21008;-54
2021/07/24 06:24:15;;;;;;;0.40;0.20;;;;;;;21.05;93.89;99581.53;5011637;28;20483;-54
2021/07/24 06:26:41;;;;;;;2.43;1.87;;;;;;;21.10;92.74;99573.91;4994379;28;20492;-54
2021/07/24 06:29:08;;;;;;;0.50;0.50;;;;;;;21.06;92.91;99582.41;5008530;28;20476;-54
2021/07/24 06:31:40;;;;;;;2.70;1.27;;;;;;;21.21;92.55;99589.22;5014207;28;20445;-54
2021/07/24 06:34:07;;;;;;;1.40;1.40;;;;;;;21.23;92.24;99593.50;5013806;28;20845;-54
2021/07/24 06:36:34;;;;;;;0.63;0.60;;;;;;;21.17;92.27;99596.75;5003534;28;20445;-53
2021/07/24 06:39:03;;;;;;;0.50;0.30;;;;;;;21.23;92.92;99585.41;5005522;28;20487;-54
2021/07/24 06:41:33;;;;;;;0.57;0.57;;;;;;;21.10;93.62;99589.25;5013310;28;20926;-53
2021/07/24 06:43:59;;;;;;;0.50;0.37;;;;;;;21.20;93.49;99582.09;5006992;28;20460;-53
2021/07/24 06:46:26;;;;;;;0.40;0.20;;;;;;;21.24;93.11;99592.56;5012341;28;20452;-54
2021/07/24 06:48:53;;;;;;;0.70;0.63;;;;;;;21.40;92.60;99599.41;4999994;28;20923;-53
2021/07/24 06:51:19;;;;;;;0.40;0.23;;;;;;;21.47;92.40;99606.84;5001039;28;20932;-54
2021/07/24 06:53:46;;;;;;;0.40;0.20;;;;;;;21.49;93.67;99610.28;4998489;28;20828;-53
2021/07/24 06:56:12;;;;;;;0.50;0.50;;;;;;;21.41;94.01;99612.78;5013346;28;20449;-53
2021/07/24 06:58:39;;;;;;;0.57;0.53;;;;;;;21.41;93.02;99609.22;5011378;28;20838;-53
2021/07/24 07:01:07;;;;;;;1.27;1.17;;;;;;;21.38;92.87;99621.16;5013521;28;20445;-53
2021/07/24 07:03:35;;;;;;;0.60;0.60;;;;;;;21.56;91.88;99618.75;5010615;28;20530;-53
2021/07/24 07:06:06;;;;;;;0.50;0.40;;;;;;;21.64;91.87;99615.38;5005296;28;20855;-54
2021/07/24 07:08:34;;;;;;;1.70;0.77;;;;;;;21.55;92.56;99607.06;5012343;28;20500;-53
2021/07/24 07:11:04;;;;;;;0.40;0.20;;;;;;;21.89;91.09;99612.28;5013011;28;20466;-53
2021/07/24 07:13:31;;;;;;;0.60;0.57;;;;;;;21.85;92.03;99613.56;5006660;28;20450;-53
2021/07/24 07:16:02;;;;;;;0.50;0.40;;;;;;;21.92;90.72;99619.28;5018366;28;20443;-53
2021/07/24 07:18:29;;;;;;;0.73;0.67;;;;;;;22.06;89.98;99609.00;5002099;28;20452;-53
2021/07/24 07:20:56;;;;;;;0.60;0.40;;;;;;;22.01;88.72;99597.69;4999596;28;20450;-53
2021/07/24 07:23:23;;;;;;;4.70;2.10;;;;;;;22.18;88.38;99607.06;5011903;28;20529;-53
2021/07/24 07:25:49;;;;;;;1.33;0.70;;;;;;;22.23;89.76;99606.69;5009076;28;20457;-53
2021/07/24 07:28:16;;;;;;;1.10;1.00;;;;;;;21.99;89.15;99604.25;5003974;28;21061;-53
2021/07/24 07:30:42;;;;;;;0.53;0.47;;;;;;;22.27;87.78;99600.00;5012318;28;20580;-53
2021/07/24 07:33:09;;;;;;;0.50;0.30;;;;;;;22.56;86.55;99587.44;5002088;28;20456;-53
2021/07/24 07:35:35;;;;;;;1.63;1.57;;;;;;;22.40;86.45;99573.56;5011981;28;21095;-53
2021/07/24 07:38:02;;;;;;;2.00;1.90;;;;;;;22.60;87.75;99585.28;5012579;28;20452;-53
2021/07/24 07:40:29;;;;;;;1.33;1.23;;;;;;;22.68;88.16;99574.63;5012162;28;20527;-53
2021/07/24 07:42:55;;;;;;;1.80;1.70;;;;;;;22.81;86.53;99558.13;5012140;28;20848;-55
2021/07/24 07:45:22;;;;;;;0.50;0.30;;;;;;;22.45;88.88;99582.13;5012357;28;20491;-53
2021/07/24 07:47:50;;;;;;;8.03;1.37;;;;;;;22.62;88.67;99586.03;5011978;28;20910;-53
2021/07/24 07:50:17;;;;;;;1.20;1.10;;;;;;;22.82;85.84;99587.78;5011617;28;20534;-54
2021/07/24 07:52:44;;;;;;;0.50;0.40;;;;;;;23.07;86.31;99589.16;5012116;28;20526;-55
2021/07/24 07:55:10;;;;;;;0.43;0.20;;;;;;;23.11;87.59;99598.72;5012167;28;20449;-53
2021/07/24 07:57:40;;;;;;;1.03;1.00;;;;;;;23.20;85.03;99597.03;5012074;28;20934;-54
2021/07/24 08:00:10;;;;;;;0.47;0.30;;;;;;;22.99;83.89;99595.28;5007762;28;20455;-53
2021/07/24 08:02:36;;;;;;;3.43;1.30;;;;;;;23.08;85.04;99582.75;5012521;28;20452;-53
2021/07/24 08:05:04;;;;;;;0.40;0.30;;;;;;;23.00;85.55;99574.44;5010758;28;20452;-53
2021/07/24 08:07:31;;;;;;;0.60;0.60;;;;;;;23.02;84.47;99554.31;5011629;28;20480;-53
2021/07/24 08:09:59;;;;;;;0.53;0.47;;;;;;;23.13;84.43;99537.06;4999649;28;20516;-54
2021/07/24 08:12:26;;;;;;;0.80;0.77;;;;;;;22.62;88.73;99546.25;5005107;28;20423;-55
2021/07/24 08:14:56;;;;;;;2.00;1.43;;;;;;;22.92;84.75;99539.06;4999753;28;20484;-54
2021/07/24 08:17:23;;;;;;;1.57;0.93;;;;;;;22.87;85.20;99544.88;5009329;28;20453;-55
2021/07/24 08:19:50;;;;;;;0.47;0.30;;;;;;;22.83;85.04;99539.91;4997883;28;20993;-54
2021/07/24 08:22:17;;;;;;;0.50;0.50;;;;;;;22.63;85.33;99533.56;5015676;28;20460;-56
2021/07/24 08:24:43;;;;;;;0.70;0.70;;;;;;;22.75;87.30;99563.13;5003116;28;20934;-54
2021/07/24 08:27:10;;;;;;;0.80;0.80;;;;;;;22.57;88.98;99564.75;5015979;28;20570;-55
2021/07/24 08:29:36;;;;;;;2.53;2.33;;;;;;;22.80;86.88;99556.41;5016015;28;20522;-57
2021/07/24 08:32:03;;;;;;;1.80;1.70;;;;;;;22.67;89.18;99560.25;5016082;28;20502;-57
2021/07/24 08:34:30;;;;;;;26.27;1.70;;;;;;;22.36;89.82;99572.97;5015944;28;20828;-56
2021/07/24 08:36:56;;;;;;;0.50;0.43;;;;;;;22.40;90.50;99568.13;5009185;28;20459;-56
2021/07/24 08:39:23;;;;;;;3.13;3.03;;;;;;;22.37;92.44;99573.84;5010393;28;20464;-57
2021/07/24 08:41:50;;;;;;;1.00;1.00;;;;;;;22.43;90.73;99567.84;5019326;28;20449;-56
2021/07/24 08:44:16;;;;;;;0.50;0.47;;;;;;;22.49;90.35;99570.03;5008726;28;21620;-57
2021/07/24 08:46:43;;;;;;;3.23;0.77;;;;;;;22.56;94.82;99563.06;5010441;28;20456;-57
2021/07/24 08:49:10;;;;;;;12.47;2.00;;;;;;;22.50;92.48;99552.78;5025038;28;20492;-56
2021/07/24 08:51:37;;;;;;;0.50;0.30;;;;;;;22.69;94.15;99539.28;4997974;28;20484;-56
2021/07/24 08:54:05;;;;;;;8.50;1.17;;;;;;;22.33;93.59;99534.44;5003889;28;20826;-56
2021/07/24 08:56:35;;;;;;;0.70;0.70;;;;;;;22.55;93.51;99531.53;5005232;28;20945;-56
2021/07/24 08:59:03;;;;;;;0.50;0.30;;;;;;;22.49;91.67;99537.53;5011725;28;20487;-56
2021/07/24 09:01:34;;;;;;;0.43;0.30;;;;;;;22.56;93.47;99540.53;5002573;28;20507;-56
2021/07/24 09:04:04;;;;;;;0.50;0.40;;;;;;;22.83;94.23;99548.88;5014439;28;20532;-56
2021/07/24 09:06:31;;;;;;;0.67;0.67;;;;;;;22.76;96.26;99548.56;5015011;28;20992;-56
2021/07/24 09:08:59;;;;;;;0.83;0.80;;;;;;;22.89;92.70;99550.16;5009052;28;20519;-56
2021/07/24 09:11:26;;;;;;;2.10;1.27;;;;;;;22.87;94.90;99544.03;5009974;28;20457;-56
2021/07/24 09:13:54;;;;;;;0.50;0.40;;;;;;;22.83;90.96;99543.47;5006404;28;20891;-56
2021/07/24 09:16:21;;;;;;;0.70;0.70;;;;;;;22.94;90.29;99561.47;5022865;28;20460;-56
2021/07/24 09:18:49;;;;;;;0.60;0.53;;;;;;;22.84;93.19;99566.00;4995562;28;20482;-56
2021/07/24 09:21:17;;;;;;;0.50;0.40;;;;;;;23.00;91.13;99567.16;5000557;28;20510;-56
2021/07/24 09:23:47;;;;;;;1.07;1.07;;;;;;;22.97;91.07;99566.59;5006209;28;20449;-56
2021/07/24 09:26:32;;;;;;;1.03;1.03;;;;;;;23.11;89.57;99571.59;5014310;28;20498;-56
2021/07/24 09:29:18;;;;;;;2.63;1.50;;;;;;;23.22;90.03;99566.06;5001852;28;20840;-56
2021/07/24 09:31:46;;;;;;;0.70;0.70;;;;;;;23.26;88.18;99572.91;5030731;28;20415;-56
2021/07/24 09:34:14;;;;;;;1.37;1.37;;;;;;;23.34;88.62;99577.63;5010326;28;20455;-56
2021/07/24 09:36:42;;;;;;;0.63;0.63;;;;;;;23.35;89.83;99585.63;5003859;28;20512;-57
2021/07/24 09:39:17;;;;;;;2.20;2.10;;;;;;;23.30;89.07;99587.91;5000312;28;21039;-56
2021/07/24 09:41:45;;;;;;;0.43;0.30;;;;;;;23.37;88.21;99581.91;5006071;28;20456;-56
2021/07/24 09:44:28;;;;;;;1.60;1.57;;;;;;;23.53;87.93;99583.03;5008579;28;20485;-56
2021/07/24 09:46:57;;;;;;;8.73;1.63;;;;;;;23.45;87.88;99584.78;5005911;28;20453;-56
2021/07/24 09:49:38;;;;;;;4.53;0.77;;;;;;;23.49;88.37;99583.47;5014101;28;20495;-56
2021/07/24 09:52:14;;;;;;;0.50;0.30;;;;;;;23.62;87.52;99575.94;5009398;28;20436;-56
2021/07/24 09:54:42;;;;;;;1.73;0.93;;;;;;;23.89;87.65;99577.88;5005219;28;20449;-56
2021/07/24 09:57:08;;;;;;;12.10;1.80;;;;;;;23.88;85.63;99579.75;5001319;28;20450;-56
2021/07/24 09:59:35;;;;;;;0.50;0.40;;;;;;;24.22;83.73;99584.66;5014589;28;20518;-54
2021/07/24 10:02:07;;;;;;;0.50;0.30;;;;;;;24.61;83.52;99579.09;5003003;28;20470;-54
2021/07/24 10:04:39;;;;;;;0.73;0.73;;;;;;;24.85;82.77;99563.06;5012430;28;20456;-54
2021/07/24 10:07:27;;;;;;;0.43;0.30;;;;;;;24.75;80.14;99562.25;5012055;28;20548;-55
2021/07/24 10:09:55;;;;;;;0.53;0.53;;;;;;;24.82;80.03;99566.09;5008459;28;20487;-56
2021/07/24 10:12:22;;;;;;;2.43;2.33;;;;;;;24.78;80.79;99559.22;5003093;28;20432;-56
2021/07/24 10:14:52;;;;;;;0.40;0.30;;;;;;;24.91;80.39;99556.16;5017426;28;20448;-56
2021/07/24 10:17:18;;;;;;;0.50;0.47;;;;;;;24.81;79.82;99551.66;5017484;28;20453;-56
2021/07/24 10:19:46;;;;;;;0.50;0.43;;;;;;;24.93;80.18;99554.13;5013900;28;20465;-56
2021/07/24 10:22:13;;;;;;;0.83;0.83;;;;;;;24.90;80.82;99559.88;5011122;28;20523;-56
2021/07/24 10:24:39;;;;;;;5.80;1.30;;;;;;;24.74;81.47;99546.97;5002376;28;20459;-56
2021/07/24 10:27:12;;;;;;;0.80;0.80;;;;;;;24.62;81.75;99548.19;5007125;28;21008;-56
2021/07/24 10:29:44;;;;;;;0.53;0.53;;;;;;;24.20;83.82;99535.91;5000739;28;20444;-56
2021/07/24 10:32:13;;;;;;;0.80;0.53;;;;;;;24.09;84.64;99530.66;5000361;28;20523;-56
2021/07/24 10:34:51;;;;;;;1.53;1.07;;;;;;;24.07;85.85;99545.38;5005129;28;20453;-56
2021/07/24 10:37:35;;;;;;;0.40;0.20;;;;;;;24.21;84.99;99543.03;5010047;28;20456;-56
2021/07/24 10:42:45;;;;;;;0.60;0.60;;;;;;;24.26;85.88;99530.88;5006474;28;20503;-55
2021/07/24 10:45:45;;;;;;;0.50;0.20;;;;;;;24.29;85.20;99520.56;4995489;28;20829;-54
2021/07/24 10:48:17;;;;;;;0.50;0.40;;;;;;;24.63;85.17;99506.41;5003045;28;20503;-55
2021/07/24 10:50:53;;;;;;;1.00;1.00;;;;;;;24.56;82.72;99524.34;5000809;28;20509;-54
2021/07/24 10:53:21;;;;;;;0.50;0.40;;;;;;;24.52;81.72;99524.63;5006496;28;20424;-54
2021/07/24 10:55:52;;;;;;;0.50;0.30;;;;;;;24.99;82.17;99520.91;5004738;28;20449;-55
2021/07/24 10:58:22;;;;;;;0.90;0.63;;;;;;;24.99;81.22;99515.44;4996355;28;20458;-55
2021/07/24 11:00:56;;;;;;;1.27;1.17;;;;;;;25.14;81.28;99522.09;5005923;28;20536;-55
2021/07/24 11:03:29;;;;;;;1.93;1.67;;;;;;;24.81;82.55;99518.16;4999756;28;20449;-56
2021/07/24 11:05:55;;;;;;;1.20;1.10;;;;;;;24.85;83.41;99507.84;5013008;28;20457;-55
2021/07/24 11:09:01;;;;;;;0.50;0.40;;;;;;;24.81;83.50;99505.44;5007521;28;20474;-57
2021/07/24 11:11:45;;;;;;;0.40;0.30;;;;;;;24.93;84.75;99489.72;5006520;28;20480;-55
2021/07/24 11:14:34;;;;;;;0.40;0.30;;;;;;;24.36;88.17;99486.38;5005271;28;20461;-55
2021/07/24 11:17:07;;;;;;;0.40;0.27;;;;;;;24.20;88.27;99484.28;5003827;28;20945;-54
2021/07/24 11:19:49;;;;;;;0.50;0.40;;;;;;;23.83;89.06;99472.59;5006632;28;20473;-55
2021/07/24 11:22:21;;;;;;;0.60;0.40;;;;;;;23.93;88.83;99484.28;5006109;28;20958;-55
2021/07/24 11:24:50;;;;;;;3.53;1.70;;;;;;;24.10;87.55;99475.31;5003139;28;20460;-54
2021/07/24 11:27:27;;;;;;;0.40;0.30;;;;;;;23.98;87.70;99481.94;5011407;28;20464;-54
2021/07/24 11:30:14;;;;;;;0.50;0.30;;;;;;;24.21;87.83;99496.88;5006087;28;20522;-55
2021/07/24 11:32:42;;;;;;;1.03;1.03;;;;;;;24.12;89.34;99496.91;5028001;28;20498;-54
2021/07/24 11:35:11;;;;;;;0.70;0.70;;;;;;;24.19;92.09;99511.59;5012390;28;20439;-54
2021/07/24 11:37:42;;;;;;;2.10;2.00;;;;;;;23.99;98.19;99543.44;5014344;28;20452;-55
2021/07/24 11:40:14;;;;;;;0.80;0.80;;;;;;;22.96;100.00;99578.44;4999303;28;20477;-54
2021/07/24 11:42:41;;;;;;;0.50;0.30;;;;;;;21.82;100.00;99592.16;4997011;28;20587;-54